Terminal Aerodrome Forecast
Issued by NWS Cleveland, OH

Home | Current Version | Previous Version | Text Only | Print | Product List | Glossary Off
Versions: 1 2 3 4 5 6 7 8 9 10 11 12 13 14

000
FTUS41 KCLE 212320
TAFCAK
TAF
KCAK 212320Z 2200/2224 04004KT P6SM BKN200
     FM221200 18008KT P6SM VCSH BKN040 OVC080
     FM221800 21014KT P6SM SCT040 BKN100=

USA.gov is the U.S. government's official web portal to all federal, state and local government web resources and services.